Time;durP1;ratioP1;P1;durP2;ratioP2;P2;SDS_P1;SDS_P2;PMS_P1;PMS_P2;Temp;Humidity;BMP_temperature;BMP_pressure;BME280_temperature;BME280_humidity;BME280_pressure;Samples;Min_cycle;Max_cycle;Signal;HPM_P1;HPM_P2
2022/02/18 00:00:52;;;;;;;11.77;3.03;;;9.30;70.90;;;;;;5020028;28;20979;-45
2022/02/18 00:03:19;;;;;;;9.80;3.20;;;9.30;70.90;;;;;;5020756;28;20466;-46
2022/02/18 00:05:46;;;;;;;19.53;3.77;;;9.30;71.00;;;;;;5022162;28;20990;-46
2022/02/18 00:08:13;;;;;;;10.47;3.90;;;9.30;71.00;;;;;;5023064;28;20554;-45
2022/02/18 00:10:41;;;;;;;13.13;3.00;;;9.30;71.10;;;;;;5024012;28;20499;-46
2022/02/18 00:13:08;;;;;;;8.30;3.10;;;9.30;71.30;;;;;;5024480;28;20569;-46
2022/02/18 00:15:36;;;;;;;12.40;3.90;;;9.30;71.50;;;;;;5008772;28;21015;-46
2022/02/18 00:18:03;;;;;;;15.00;4.20;;;9.30;71.50;;;;;;5009449;28;22674;-46
2022/02/18 00:20:31;;;;;;;18.03;4.70;;;9.40;71.50;;;;;;5022405;28;20551;-45
2022/02/18 00:23:03;;;;;;;9.47;3.37;;;9.40;71.40;;;;;;5025284;28;20837;-45
2022/02/18 00:25:31;;;;;;;11.90;4.20;;;9.40;71.00;;;;;;5024013;28;20566;-45
2022/02/18 00:28:02;;;;;;;13.30;3.10;;;9.40;70.80;;;;;;5026792;28;20502;-45
2022/02/18 00:30:30;;;;;;;9.13;3.03;;;9.40;70.70;;;;;;5026023;28;20461;-45
2022/02/18 00:32:57;;;;;;;12.43;4.80;;;9.40;70.70;;;;;;5027824;28;20455;-45
2022/02/18 00:35:24;;;;;;;10.77;3.63;;;9.50;70.80;;;;;;5025364;28;20460;-45
2022/02/18 00:37:52;;;;;;;11.17;3.30;;;9.50;70.90;;;;;;5027550;28;20543;-45
2022/02/18 00:40:19;;;;;;;13.57;3.53;;;9.50;70.80;;;;;;5024834;28;20455;-45
2022/02/18 00:42:47;;;;;;;10.07;3.63;;;9.40;70.80;;;;;;5026591;28;20612;-45
2022/02/18 00:45:14;;;;;;;19.77;4.07;;;9.40;70.50;;;;;;5006423;28;20668;-45
2022/02/18 00:47:41;;;;;;;9.20;3.07;;;9.50;70.50;;;;;;5026354;28;20495;-45
2022/02/18 00:50:09;;;;;;;11.30;3.07;;;9.50;70.50;;;;;;5026361;28;20548;-45
2022/02/18 00:52:36;;;;;;;11.00;3.00;;;9.40;70.40;;;;;;5027053;28;20466;-45
2022/02/18 00:55:03;;;;;;;11.40;3.00;;;9.40;70.30;;;;;;5023782;28;20461;-45
2022/02/18 00:57:30;;;;;;;11.47;4.07;;;9.40;70.00;;;;;;5011552;28;20601;-45
2022/02/18 00:59:57;;;;;;;8.33;2.47;;;9.40;70.00;;;;;;5012733;28;20770;-45
2022/02/18 01:02:23;;;;;;;7.90;2.50;;;9.40;69.60;;;;;;5024932;28;20454;-45
2022/02/18 01:04:50;;;;;;;13.43;3.40;;;9.50;68.90;;;;;;5022627;28;20452;-45
2022/02/18 01:07:17;;;;;;;12.53;2.50;;;9.50;69.00;;;;;;5027283;28;20470;-45
2022/02/18 01:09:44;;;;;;;8.40;2.70;;;9.50;69.10;;;;;;5010533;28;20479;-45
2022/02/18 01:12:10;;;;;;;10.23;4.20;;;9.50;69.00;;;;;;5025792;28;20448;-45
2022/02/18 01:14:37;;;;;;;12.00;2.73;;;9.50;68.70;;;;;;5026650;28;20984;-45
2022/02/18 01:17:04;;;;;;;6.33;2.30;;;9.50;68.80;;;;;;5012413;28;20866;-45
2022/02/18 01:19:31;;;;;;;12.67;3.13;;;9.60;68.30;;;;;;5027413;28;20899;-45
2022/02/18 01:21:58;;;;;;;9.70;2.40;;;9.60;67.80;;;;;;5027121;28;20458;-45
2022/02/18 01:24:24;;;;;;;11.27;2.90;;;9.70;67.50;;;;;;5022230;28;20470;-46
2022/02/18 01:26:51;;;;;;;8.20;2.83;;;9.70;67.60;;;;;;5023133;28;20460;-46
2022/02/18 01:29:18;;;;;;;9.70;2.40;;;9.70;67.40;;;;;;5018673;28;20455;-45
2022/02/18 01:31:45;;;;;;;11.10;3.57;;;9.80;67.20;;;;;;5027865;28;20470;-46
2022/02/18 01:34:13;;;;;;;9.80;2.60;;;9.80;67.70;;;;;;5028456;28;20455;-46
2022/02/18 01:36:40;;;;;;;9.13;2.97;;;9.80;67.90;;;;;;5027220;28;20487;-45
2022/02/18 01:39:07;;;;;;;7.80;2.70;;;9.80;68.30;;;;;;5024038;28;20531;-45
2022/02/18 01:41:34;;;;;;;11.83;2.53;;;9.80;67.90;;;;;;5024960;28;20451;-45
2022/02/18 01:44:06;;;;;;;9.37;2.70;;;9.80;67.90;;;;;;5024775;28;20470;-46
2022/02/18 01:46:34;;;;;;;5.57;2.20;;;9.70;68.10;;;;;;5012296;28;20506;-46
2022/02/18 01:49:01;;;;;;;12.60;3.60;;;9.70;68.60;;;;;;5025652;28;20553;-46
2022/02/18 01:51:28;;;;;;;12.33;3.20;;;9.70;68.40;;;;;;5024051;28;20595;-46
2022/02/18 01:53:55;;;;;;;12.50;5.60;;;9.70;67.90;;;;;;5024880;28;20471;-45
2022/02/18 01:56:23;;;;;;;9.53;2.27;;;9.70;67.70;;;;;;5025048;28;20483;-45
2022/02/18 01:58:50;;;;;;;12.77;2.67;;;9.70;67.50;;;;;;5023768;28;21613;-45
2022/02/18 02:01:17;;;;;;;4.63;2.70;;;9.70;67.70;;;;;;5012208;28;20826;-45
2022/02/18 02:03:44;;;;;;;12.90;2.60;;;9.70;67.70;;;;;;5022991;28;20711;-45
2022/02/18 02:06:14;;;;;;;9.77;3.83;;;9.70;67.90;;;;;;5027168;28;20903;-45
2022/02/18 02:08:41;;;;;;;9.63;2.10;;;9.70;67.60;;;;;;5025006;28;20475;-45
2022/02/18 02:11:08;;;;;;;8.47;2.57;;;9.70;67.80;;;;;;5022972;28;20475;-45
2022/02/18 02:13:40;;;;;;;9.57;3.40;;;9.70;67.80;;;;;;5021338;28;21842;-45
2022/02/18 02:16:07;;;;;;;8.23;2.67;;;9.60;67.90;;;;;;5026208;28;20481;-45
2022/02/18 02:18:34;;;;;;;7.10;2.57;;;9.70;67.60;;;;;;5018585;28;21024;-45
2022/02/18 02:21:01;;;;;;;8.83;2.37;;;9.70;67.90;;;;;;5026390;28;21283;-45
2022/02/18 02:23:28;;;;;;;5.67;2.37;;;9.70;67.80;;;;;;5026616;28;20463;-45
2022/02/18 02:25:57;;;;;;;8.03;2.47;;;9.70;67.70;;;;;;5025509;28;20460;-45
2022/02/18 02:28:25;;;;;;;13.90;2.60;;;9.70;68.10;;;;;;5024980;28;20498;-45
2022/02/18 02:30:51;;;;;;;6.53;2.50;;;9.70;67.60;;;;;;5025232;28;20459;-45
2022/02/18 02:33:19;;;;;;;14.40;2.97;;;9.70;67.80;;;;;;5025924;28;20532;-45
2022/02/18 02:35:45;;;;;;;9.57;3.20;;;9.70;67.70;;;;;;5024384;28;20558;-45
2022/02/18 02:38:12;;;;;;;9.33;2.23;;;9.70;68.10;;;;;;5026920;28;20822;-45
2022/02/18 02:40:39;;;;;;;6.80;2.40;;;9.70;68.00;;;;;;5007121;28;20459;-45
2022/02/18 02:43:06;;;;;;;5.60;2.43;;;9.80;67.70;;;;;;5024799;28;20470;-45
2022/02/18 02:45:32;;;;;;;7.50;2.67;;;9.70;67.90;;;;;;5023915;28;20485;-45
2022/02/18 02:47:59;;;;;;;7.80;2.70;;;9.70;68.10;;;;;;5021583;28;21080;-45
2022/02/18 02:50:26;;;;;;;12.03;3.00;;;9.70;67.80;;;;;;5023315;28;20465;-45
2022/02/18 02:52:53;;;;;;;7.33;2.73;;;9.70;67.90;;;;;;5026122;28;20471;-45
2022/02/18 02:55:20;;;;;;;7.67;2.30;;;9.80;67.70;;;;;;5021851;28;20811;-45
2022/02/18 02:57:47;;;;;;;6.30;2.13;;;9.80;67.80;;;;;;5023746;28;20483;-45
2022/02/18 03:00:15;;;;;;;13.27;2.70;;;9.80;67.70;;;;;;5009737;28;20475;-45
2022/02/18 03:02:42;;;;;;;6.73;2.47;;;9.80;67.60;;;;;;5014125;28;20451;-45
2022/02/18 03:05:11;;;;;;;5.93;2.40;;;9.70;68.00;;;;;;5008168;28;20462;-45
2022/02/18 03:07:38;;;;;;;6.67;2.67;;;9.70;68.10;;;;;;5023417;28;20458;-45
2022/02/18 03:10:07;;;;;;;8.00;2.43;;;9.70;68.30;;;;;;5004088;28;20471;-45
2022/02/18 03:12:34;;;;;;;8.13;3.13;;;9.60;69.00;;;;;;5021824;28;20455;-46
2022/02/18 03:15:02;;;;;;;16.27;4.40;;;9.60;69.20;;;;;;5009176;28;20475;-45
2022/02/18 03:17:28;;;;;;;12.10;2.80;;;9.60;69.50;;;;;;5006874;28;20570;-45
2022/02/18 03:19:55;;;;;;;12.60;3.43;;;9.60;69.70;;;;;;5021697;28;20467;-45
2022/02/18 03:22:22;;;;;;;7.23;3.40;;;9.60;70.10;;;;;;5023913;28;20859;-45
2022/02/18 03:24:49;;;;;;;8.50;2.50;;;9.60;70.40;;;;;;5020252;28;20843;-46
2022/02/18 03:27:17;;;;;;;8.87;3.90;;;9.60;70.50;;;;;;5023687;28;20467;-45
2022/02/18 03:29:44;;;;;;;10.00;2.93;;;9.60;70.60;;;;;;5022698;28;20505;-45
2022/02/18 03:32:10;;;;;;;13.57;3.17;;;9.60;70.90;;;;;;5022351;28;20843;-45
2022/02/18 03:34:37;;;;;;;8.33;3.27;;;9.60;71.10;;;;;;5009322;28;20911;-45
2022/02/18 03:37:04;;;;;;;12.10;3.40;;;9.60;71.40;;;;;;5008648;28;20567;-45
2022/02/18 03:39:31;;;;;;;13.07;3.43;;;9.60;71.60;;;;;;5023135;28;20963;-45
2022/02/18 03:41:58;;;;;;;6.80;2.70;;;9.60;71.80;;;;;;5024999;28;20971;-45
2022/02/18 03:44:25;;;;;;;10.07;3.80;;;9.60;72.00;;;;;;5005113;28;21717;-46
2022/02/18 03:46:52;;;;;;;14.23;4.93;;;9.60;72.00;;;;;;5023742;28;20578;-46
2022/02/18 03:49:18;;;;;;;10.03;3.47;;;9.60;72.10;;;;;;5026066;28;20498;-46
2022/02/18 03:51:45;;;;;;;11.47;3.30;;;9.60;72.40;;;;;;5024860;28;20469;-45
2022/02/18 03:54:12;;;;;;;18.13;4.40;;;9.60;72.60;;;;;;5024110;28;20466;-45
2022/02/18 03:56:39;;;;;;;15.83;4.53;;;9.60;72.90;;;;;;5024243;28;20483;-45
2022/02/18 03:59:06;;;;;;;8.13;2.87;;;9.50;72.90;;;;;;5022850;28;20466;-45
2022/02/18 04:01:33;;;;;;;16.93;4.50;;;9.60;73.10;;;;;;5025864;28;20459;-46
2022/02/18 04:03:59;;;;;;;14.87;4.10;;;9.60;73.30;;;;;;5014754;28;20976;-45
2022/02/18 04:06:26;;;;;;;10.10;3.07;;;9.50;73.40;;;;;;5027173;28;20510;-45
2022/02/18 04:08:53;;;;;;;18.00;4.10;;;9.50;73.60;;;;;;5024863;28;21007;-45
2022/02/18 04:11:20;;;;;;;13.30;3.10;;;9.50;73.60;;;;;;5028963;28;20473;-45
2022/02/18 04:13:47;;;;;;;12.63;4.17;;;9.50;73.70;;;;;;5027681;28;20482;-45
2022/02/18 04:16:14;;;;;;;16.37;3.77;;;9.50;73.70;;;;;;5026800;28;20462;-46
2022/02/18 04:18:40;;;;;;;14.53;3.30;;;9.50;73.80;;;;;;5013241;28;20455;-46
2022/02/18 04:21:07;;;;;;;14.50;4.30;;;9.50;73.80;;;;;;5024522;28;20455;-46
2022/02/18 04:23:34;;;;;;;12.20;4.50;;;9.60;73.80;;;;;;5026235;28;20459;-45
2022/02/18 04:26:02;;;;;;;15.90;4.20;;;9.50;73.90;;;;;;5013275;28;20822;-46
2022/02/18 04:28:29;;;;;;;15.53;4.20;;;9.50;74.00;;;;;;5023654;28;20459;-45
2022/02/18 04:30:56;;;;;;;17.20;5.27;;;9.50;74.00;;;;;;5026843;28;20535;-46
2022/02/18 04:33:23;;;;;;;13.20;3.60;;;9.50;74.10;;;;;;5027538;28;20467;-46
2022/02/18 04:35:49;;;;;;;18.70;4.67;;;9.50;74.10;;;;;;5027523;28;20871;-45
2022/02/18 04:38:16;;;;;;;20.57;4.47;;;9.50;74.10;;;;;;5028161;28;20713;-45
2022/02/18 04:40:43;;;;;;;20.43;4.87;;;9.50;74.00;;;;;;5027665;28;20506;-45
2022/02/18 04:43:09;;;;;;;15.60;4.40;;;9.50;74.10;;;;;;5025492;28;20467;-46
2022/02/18 04:45:36;;;;;;;10.23;3.67;;;9.50;74.20;;;;;;5024562;28;20463;-45
2022/02/18 04:48:03;;;;;;;16.60;4.40;;;9.50;74.30;;;;;;5022788;28;20495;-45
2022/02/18 04:50:30;;;;;;;14.93;3.47;;;9.50;74.40;;;;;;5025680;28;20468;-45
2022/02/18 04:52:57;;;;;;;10.03;3.90;;;9.50;74.40;;;;;;5028930;28;20467;-45
2022/02/18 04:55:24;;;;;;;12.63;4.17;;;9.50;74.50;;;;;;5026691;28;20468;-45
2022/02/18 04:57:50;;;;;;;13.83;3.80;;;9.50;74.60;;;;;;5027742;28;20493;-45
2022/02/18 05:00:18;;;;;;;14.63;4.17;;;9.50;74.70;;;;;;5024326;28;20473;-45
2022/02/18 05:02:46;;;;;;;20.90;4.57;;;9.50;74.70;;;;;;5025903;28;20819;-45
2022/02/18 05:05:13;;;;;;;14.50;3.40;;;9.50;74.60;;;;;;5023905;28;20464;-46
2022/02/18 05:07:40;;;;;;;19.03;4.30;;;9.50;74.60;;;;;;5025206;28;20465;-45
2022/02/18 05:10:07;;;;;;;13.80;4.43;;;9.50;74.70;;;;;;5007160;28;20467;-45
2022/02/18 05:12:35;;;;;;;17.73;4.50;;;9.50;74.70;;;;;;5023917;28;20463;-45
2022/02/18 05:15:02;;;;;;;11.70;3.90;;;9.50;74.80;;;;;;5027276;28;20467;-45
2022/02/18 05:17:28;;;;;;;19.17;4.47;;;9.50;74.80;;;;;;5011557;28;20487;-45
2022/02/18 05:19:55;;;;;;;11.73;3.60;;;9.50;74.80;;;;;;5024945;28;20805;-45
2022/02/18 05:22:22;;;;;;;8.80;3.50;;;9.50;74.80;;;;;;5011883;28;20554;-45
2022/02/18 05:24:49;;;;;;;15.93;3.97;;;9.50;74.90;;;;;;5006680;28;20471;-45
2022/02/18 05:27:15;;;;;;;12.43;4.37;;;9.50;75.00;;;;;;5025300;28;20464;-45
2022/02/18 05:29:42;;;;;;;8.70;3.67;;;9.50;75.10;;;;;;5027056;28;20550;-45
2022/02/18 05:32:09;;;;;;;15.73;3.90;;;9.50;75.20;;;;;;5023305;28;20467;-45
2022/02/18 05:34:36;;;;;;;13.47;4.10;;;9.50;75.30;;;;;;5026276;28;20502;-45
2022/02/18 05:37:04;;;;;;;14.60;4.17;;;9.50;75.20;;;;;;5024468;28;20492;-45
2022/02/18 05:39:30;;;;;;;17.50;3.33;;;9.50;75.20;;;;;;5025513;28;20538;-45
2022/02/18 05:41:57;;;;;;;15.50;5.20;;;9.50;75.20;;;;;;5026277;28;20495;-46
2022/02/18 05:44:30;;;;;;;16.73;3.90;;;9.50;75.30;;;;;;5024819;28;20494;-46
2022/02/18 05:46:59;;;;;;;11.70;4.10;;;9.50;75.30;;;;;;5026735;28;21308;-46
2022/02/18 05:49:27;;;;;;;19.53;4.73;;;9.50;75.50;;;;;;5026688;28;20773;-46
2022/02/18 05:51:54;;;;;;;18.17;3.97;;;9.50;75.60;;;;;;5021994;28;20469;-45
2022/02/18 05:54:21;;;;;;;13.73;5.03;;;9.50;75.50;;;;;;5009284;28;20965;-46
2022/02/18 05:56:50;;;;;;;18.03;4.70;;;9.50;75.20;;;;;;5024062;28;20513;-45
2022/02/18 05:59:21;;;;;;;13.00;4.10;;;9.60;75.40;;;;;;5027910;28;20802;-46
2022/02/18 06:01:48;;;;;;;9.33;4.43;;;9.60;75.50;;;;;;5022191;28;20455;-46
2022/02/18 06:04:15;;;;;;;12.73;3.60;;;9.60;76.40;;;;;;5021485;28;20489;-46
2022/02/18 06:06:44;;;;;;;10.97;3.30;;;9.60;76.50;;;;;;5021859;28;20927;-46
2022/02/18 06:09:11;;;;;;;12.47;3.43;;;9.60;76.80;;;;;;5026409;28;20554;-46
2022/02/18 06:11:39;;;;;;;13.60;3.40;;;9.60;76.80;;;;;;5010078;28;20459;-45
2022/02/18 06:14:06;;;;;;;20.77;4.53;;;9.60;77.10;;;;;;5023420;28;20455;-46
2022/02/18 06:16:33;;;;;;;16.43;4.10;;;9.60;77.10;;;;;;5024173;28;20447;-46
2022/02/18 06:19:03;;;;;;;9.93;3.67;;;9.60;77.30;;;;;;5024737;28;20491;-46
2022/02/18 06:21:30;;;;;;;9.47;2.87;;;9.50;77.50;;;;;;5024318;28;20456;-46
2022/02/18 06:23:58;;;;;;;10.47;4.37;;;9.50;77.50;;;;;;5024808;28;20466;-46
2022/02/18 06:26:24;;;;;;;13.70;3.53;;;9.50;77.70;;;;;;5021621;28;20456;-46
2022/02/18 06:28:51;;;;;;;16.50;3.67;;;9.50;77.70;;;;;;5008855;28;20980;-46
2022/02/18 06:31:18;;;;;;;15.30;4.17;;;9.50;77.90;;;;;;5026810;28;20466;-46
2022/02/18 06:33:46;;;;;;;9.00;3.70;;;9.50;77.70;;;;;;5024112;28;20482;-46
2022/02/18 06:36:13;;;;;;;10.17;3.20;;;9.50;77.60;;;;;;5008605;28;20556;-46
2022/02/18 06:38:42;;;;;;;15.90;3.83;;;9.50;77.70;;;;;;5024054;28;20483;-46
2022/02/18 06:41:10;;;;;;;12.80;5.60;;;9.50;77.80;;;;;;5024999;28;20464;-46
2022/02/18 06:43:38;;;;;;;12.57;4.03;;;9.50;77.90;;;;;;5007759;28;20458;-46
2022/02/18 06:46:05;;;;;;;9.43;3.90;;;9.50;78.00;;;;;;5020415;28;20514;-46
2022/02/18 06:48:32;;;;;;;17.70;4.30;;;9.50;78.00;;;;;;5024339;28;20883;-46
2022/02/18 06:50:58;;;;;;;10.60;4.33;;;9.50;77.90;;;;;;5025631;28;20458;-46
2022/02/18 06:53:27;;;;;;;13.57;4.40;;;9.50;78.00;;;;;;5026653;28;20451;-46
2022/02/18 06:55:54;;;;;;;12.30;3.33;;;9.50;77.90;;;;;;5019998;28;20466;-46
2022/02/18 06:58:21;;;;;;;9.57;4.43;;;9.50;78.00;;;;;;5010621;28;20503;-46
2022/02/18 07:00:51;;;;;;;14.23;3.33;;;9.50;77.90;;;;;;5022547;28;20456;-46
2022/02/18 07:03:19;;;;;;;16.67;3.80;;;9.50;77.90;;;;;;5025031;28;20463;-46
2022/02/18 07:05:48;;;;;;;9.30;3.30;;;9.50;77.70;;;;;;5025830;28;20992;-46
2022/02/18 07:08:16;;;;;;;13.70;4.63;;;9.50;77.80;;;;;;5027085;28;20546;-46
2022/02/18 07:10:43;;;;;;;9.30;3.60;;;9.50;77.80;;;;;;5020037;28;20463;-46
2022/02/18 07:13:10;;;;;;;8.63;3.97;;;9.50;77.90;;;;;;5023549;28;20469;-46
2022/02/18 07:15:37;;;;;;;16.23;4.63;;;9.50;77.90;;;;;;5010856;28;20465;-46
2022/02/18 07:18:04;;;;;;;19.33;5.40;;;9.50;78.00;;;;;;5022290;28;20824;-46
2022/02/18 07:20:32;;;;;;;13.83;3.83;;;9.50;78.00;;;;;;5026133;28;20847;-46
2022/02/18 07:22:59;;;;;;;14.33;5.20;;;9.50;78.00;;;;;;5023814;28;20474;-46
2022/02/18 07:25:25;;;;;;;9.10;3.50;;;9.50;78.00;;;;;;5025464;28;20984;-46
2022/02/18 07:27:53;;;;;;;15.97;3.97;;;9.50;78.10;;;;;;5005651;28;20473;-46
2022/02/18 07:30:20;;;;;;;10.37;3.57;;;9.60;78.20;;;;;;5026103;28;20468;-46
2022/02/18 07:32:48;;;;;;;15.23;3.50;;;9.60;78.40;;;;;;5026046;28;20462;-46
2022/02/18 07:35:15;;;;;;;9.50;5.13;;;9.60;78.40;;;;;;5029861;28;20462;-46
2022/02/18 07:37:44;;;;;;;16.47;4.43;;;9.60;78.40;;;;;;5033557;28;21016;-46
2022/02/18 07:40:14;;;;;;;12.00;3.47;;;9.70;78.20;;;;;;5036508;28;20492;-46
2022/02/18 07:42:43;;;;;;;17.43;4.53;;;9.70;78.10;;;;;;5015417;28;21042;-46
2022/02/18 07:45:11;;;;;;;8.80;3.17;;;9.70;78.30;;;;;;5034771;28;20597;-46
2022/02/18 07:47:38;;;;;;;11.23;3.27;;;9.70;78.40;;;;;;5029911;28;20530;-46
2022/02/18 07:50:07;;;;;;;20.57;4.37;;;9.70;78.50;;;;;;5012455;28;20462;-46
2022/02/18 07:52:36;;;;;;;13.80;3.60;;;9.70;78.80;;;;;;5029480;28;20572;-46
2022/02/18 07:55:04;;;;;;;8.57;2.90;;;9.70;79.10;;;;;;5029732;28;20479;-46
2022/02/18 07:57:30;;;;;;;13.77;2.80;;;9.70;79.30;;;;;;5015070;28;20487;-46
2022/02/18 07:59:57;;;;;;;19.63;3.70;;;9.70;79.10;;;;;;5024210;28;20825;-46
2022/02/18 08:02:24;;;;;;;10.93;3.50;;;9.80;79.30;;;;;;5030826;28;20447;-46
2022/02/18 08:04:51;;;;;;;14.60;3.87;;;9.80;79.50;;;;;;5013282;28;20575;-46
2022/02/18 08:07:17;;;;;;;8.00;2.50;;;9.80;79.40;;;;;;5027817;28;20582;-46
2022/02/18 08:09:44;;;;;;;12.37;3.77;;;9.90;79.80;;;;;;5029745;28;20470;-46
2022/02/18 08:12:11;;;;;;;9.43;3.57;;;9.90;79.70;;;;;;5002500;28;20450;-46
2022/02/18 08:14:38;;;;;;;11.20;4.07;;;9.90;79.80;;;;;;5032389;28;20524;-46
2022/02/18 08:17:05;;;;;;;12.63;2.87;;;9.90;79.80;;;;;;5031932;28;20467;-46
2022/02/18 08:19:32;;;;;;;12.27;3.40;;;10.00;79.90;;;;;;5031220;28;20490;-46
2022/02/18 08:22:01;;;;;;;13.40;4.20;;;10.00;79.60;;;;;;5029940;28;20451;-46
2022/02/18 08:24:32;;;;;;;12.57;3.83;;;10.00;80.00;;;;;;5029840;28;20490;-46
2022/02/18 08:27:01;;;;;;;11.90;3.70;;;9.90;79.90;;;;;;5028255;28;20474;-46
2022/02/18 08:29:27;;;;;;;10.03;3.50;;;10.00;80.10;;;;;;5031362;28;21033;-46
2022/02/18 08:31:56;;;;;;;14.03;3.90;;;9.90;80.10;;;;;;5016099;28;20463;-46
2022/02/18 08:34:23;;;;;;;10.00;2.77;;;10.00;80.30;;;;;;5029786;28;20459;-46
2022/02/18 08:36:49;;;;;;;12.70;3.17;;;10.00;80.30;;;;;;5028561;28;20463;-46
2022/02/18 08:39:17;;;;;;;10.80;2.97;;;10.00;80.20;;;;;;5031257;28;20491;-46
2022/02/18 08:41:44;;;;;;;15.87;4.40;;;10.00;80.40;;;;;;5028426;28;20469;-46
2022/02/18 08:44:11;;;;;;;11.63;3.50;;;10.00;80.40;;;;;;5012954;28;20451;-46
2022/02/18 08:46:38;;;;;;;10.23;3.30;;;10.00;80.50;;;;;;5030670;28;20486;-46
2022/02/18 08:49:08;;;;;;;7.33;2.90;;;10.10;81.10;;;;;;5010623;28;20467;-46
2022/02/18 08:51:35;;;;;;;5.60;2.80;;;10.10;80.90;;;;;;5026280;28;20503;-46
2022/02/18 08:54:02;;;;;;;6.10;3.50;;;10.10;81.10;;;;;;5028814;28;20463;-46
2022/02/18 08:56:29;;;;;;;9.20;3.77;;;10.10;81.60;;;;;;5026153;28;20471;-47
2022/02/18 08:58:56;;;;;;;7.80;3.70;;;10.10;81.50;;;;;;5024605;28;20963;-46
2022/02/18 09:01:27;;;;;;;7.60;2.83;;;10.10;81.50;;;;;;5028794;28;20491;-46
2022/02/18 09:03:53;;;;;;;6.63;2.53;;;10.20;81.60;;;;;;5013029;28;20470;-46
2022/02/18 09:06:22;;;;;;;7.37;2.57;;;10.20;81.70;;;;;;5025748;28;20460;-46
2022/02/18 09:08:48;;;;;;;10.63;2.80;;;10.30;82.30;;;;;;5026967;28;20562;-47
2022/02/18 09:11:16;;;;;;;6.43;2.37;;;10.40;83.00;;;;;;5023474;28;20470;-46
2022/02/18 09:13:43;;;;;;;6.17;2.33;;;10.40;82.70;;;;;;5026103;28;20467;-46
2022/02/18 09:16:10;;;;;;;4.33;2.00;;;10.40;82.90;;;;;;5025953;28;20459;-46
2022/02/18 09:18:37;;;;;;;4.83;2.60;;;10.50;83.00;;;;;;5025056;28;20509;-46
2022/02/18 09:21:06;;;;;;;6.23;2.17;;;10.50;83.40;;;;;;5027567;28;20948;-46
2022/02/18 09:23:52;;;;;;;4.57;2.00;;;10.60;83.60;;;;;;5026827;28;20952;-46
2022/02/18 09:26:21;;;;;;;5.40;3.23;;;10.60;83.70;;;;;;5021943;28;20462;-46
2022/02/18 09:28:48;;;;;;;3.67;2.37;;;10.60;83.80;;;;;;5027921;28;20474;-46
2022/02/18 09:31:15;;;;;;;6.80;2.17;;;10.70;83.90;;;;;;5029070;28;20546;-46
2022/02/18 09:33:42;;;;;;;2.77;2.13;;;10.70;84.00;;;;;;5010287;28;20482;-46
2022/02/18 09:36:09;;;;;;;4.67;1.67;;;10.80;84.10;;;;;;5026465;28;20953;-46
2022/02/18 09:38:36;;;;;;;2.80;1.47;;;10.90;85.00;;;;;;5013211;28;20533;-46
2022/02/18 09:41:08;;;;;;;2.73;1.70;;;10.90;84.80;;;;;;5028866;28;20456;-46
2022/02/18 09:43:36;;;;;;;5.73;1.70;;;11.00;84.90;;;;;;5027144;28;20454;-46
2022/02/18 09:46:04;;;;;;;4.00;2.10;;;11.10;85.80;;;;;;5026735;28;20448;-46
2022/02/18 09:48:32;;;;;;;2.63;1.50;;;11.20;86.10;;;;;;5027318;28;20475;-46
2022/02/18 09:51:00;;;;;;;2.80;1.20;;;11.30;86.30;;;;;;5025781;28;20463;-45
2022/02/18 09:53:27;;;;;;;3.17;1.37;;;11.40;86.50;;;;;;5025643;28;20463;-46
2022/02/18 09:55:55;;;;;;;0.90;0.70;;;11.40;86.60;;;;;;5028171;28;20475;-46
2022/02/18 09:58:24;;;;;;;1.10;0.80;;;11.60;87.00;;;;;;5028083;28;20495;-46
2022/02/18 10:00:51;;;;;;;0.83;0.70;;;11.70;86.80;;;;;;5025776;28;20838;-46
2022/02/18 10:03:18;;;;;;;1.10;0.60;;;11.80;86.70;;;;;;5026463;28;20830;-47
2022/02/18 10:05:45;;;;;;;0.70;0.57;;;11.90;86.20;;;;;;5012609;28;20455;-46
2022/02/18 10:08:15;;;;;;;1.47;0.70;;;12.00;85.70;;;;;;5024720;28;20490;-46
2022/02/18 10:10:56;;;;;;;0.77;0.60;;;12.10;85.60;;;;;;5025411;28;20910;-46
2022/02/18 10:13:41;;;;;;;0.80;0.80;;;12.10;85.10;;;;;;5013279;28;20835;-47
2022/02/18 10:16:18;;;;;;;0.73;0.60;;;12.20;84.90;;;;;;5025851;28;21055;-47
2022/02/18 10:18:54;;;;;;;1.37;1.27;;;12.30;84.50;;;;;;5028478;28;20491;-47
2022/02/18 10:21:21;;;;;;;0.50;0.50;;;12.40;84.10;;;;;;5003486;28;20530;-48
2022/02/18 10:23:48;;;;;;;1.33;0.83;;;12.40;83.90;;;;;;5027335;28;20464;-47
2022/02/18 10:26:16;;;;;;;0.60;0.60;;;12.50;83.40;;;;;;5025693;28;20867;-47
2022/02/18 10:28:56;;;;;;;2.23;0.70;;;12.60;83.20;;;;;;5010835;28;20464;-47
2022/02/18 10:31:22;;;;;;;1.40;0.60;;;12.70;82.90;;;;;;5024138;28;20983;-47
2022/02/18 10:34:18;;;;;;;0.90;0.70;;;12.70;82.70;;;;;;5022625;28;20463;-47
2022/02/18 10:36:45;;;;;;;2.23;1.40;;;12.80;82.50;;;;;;5010420;28;20483;-47
2022/02/18 10:39:36;;;;;;;2.20;0.80;;;12.90;82.10;;;;;;5013403;28;20562;-47
2022/02/18 10:42:03;;;;;;;0.60;0.60;;;12.90;81.70;;;;;;5025463;28;21057;-47
2022/02/18 10:44:32;;;;;;;1.80;0.80;;;13.00;81.30;;;;;;5024323;28;20462;-47
2022/02/18 10:47:05;;;;;;;1.33;0.70;;;13.10;81.20;;;;;;5010481;28;20844;-47
2022/02/18 10:49:43;;;;;;;1.97;0.70;;;13.10;81.30;;;;;;5015438;28;20467;-47
2022/02/18 10:52:14;;;;;;;0.70;0.60;;;13.20;80.90;;;;;;5025551;28;20470;-47
2022/02/18 10:54:41;;;;;;;0.83;0.83;;;13.30;80.40;;;;;;5026470;28;20466;-47
2022/02/18 10:57:28;;;;;;;1.20;0.70;;;13.40;79.90;;;;;;5007980;28;20559;-47
2022/02/18 10:59:55;;;;;;;0.70;0.40;;;13.40;79.90;;;;;;5026088;28;20495;-47
2022/02/18 11:02:36;;;;;;;1.20;0.40;;;13.50;80.10;;;;;;5026111;28;20461;-46
2022/02/18 11:05:23;;;;;;;1.40;0.90;;;13.50;79.50;;;;;;5026420;28;20448;-47
2022/02/18 11:07:56;;;;;;;0.67;0.50;;;13.60;79.90;;;;;;4987816;28;20455;-47
2022/02/18 11:10:42;;;;;;;0.93;0.83;;;13.50;80.10;;;;;;5026196;28;20486;-47
2022/02/18 11:13:11;;;;;;;1.23;0.50;;;13.50;79.90;;;;;;5012198;28;20486;-47
2022/02/18 11:15:40;;;;;;;1.63;0.93;;;13.50;80.00;;;;;;5027026;28;20971;-46
2022/02/18 11:18:08;;;;;;;0.70;0.70;;;13.50;79.90;;;;;;5022731;28;20590;-47
2022/02/18 11:20:35;;;;;;;0.80;0.60;;;13.60;79.60;;;;;;5021389;28;20769;-47
2022/02/18 11:23:02;;;;;;;1.00;0.80;;;13.60;79.80;;;;;;5023763;28;20908;-47
2022/02/18 11:25:29;;;;;;;0.70;0.60;;;13.60;79.60;;;;;;5025671;28;20960;-46
2022/02/18 11:28:02;;;;;;;1.77;0.80;;;13.60;79.10;;;;;;5024768;28;20470;-47
2022/02/18 11:30:29;;;;;;;1.00;0.90;;;13.70;78.70;;;;;;5010731;28;20474;-47
2022/02/18 11:33:16;;;;;;;0.77;0.63;;;13.80;78.60;;;;;;5026122;28;20987;-46
2022/02/18 11:36:13;;;;;;;1.43;0.60;;;13.80;79.10;;;;;;5025846;28;20463;-46
2022/02/18 11:39:11;;;;;;;9.00;4.30;;;13.80;80.10;;;;;;5011228;28;20935;-46
2022/02/18 11:41:40;;;;;;;2.20;1.60;;;13.70;80.70;;;;;;5009006;28;20447;-47
2022/02/18 11:44:09;;;;;;;0.70;0.50;;;13.70;80.70;;;;;;5015999;28;20963;-47
2022/02/18 11:46:36;;;;;;;1.70;0.73;;;13.70;80.40;;;;;;5027547;28;20843;-46
2022/02/18 11:49:08;;;;;;;1.17;0.47;;;13.60;80.50;;;;;;5026954;28;20462;-46
2022/02/18 11:51:41;;;;;;;0.93;0.50;;;13.60;80.30;;;;;;5011109;28;20587;-47
2022/02/18 11:54:26;;;;;;;2.20;0.60;;;13.60;80.20;;;;;;5025018;28;20550;-46
2022/02/18 11:57:21;;;;;;;1.43;0.57;;;13.60;80.40;;;;;;5009029;28;20451;-47
2022/02/18 12:00:08;;;;;;;1.50;1.00;;;13.70;80.30;;;;;;5027289;28;20880;-46
2022/02/18 12:02:35;;;;;;;2.80;1.00;;;13.70;79.80;;;;;;5023685;28;20557;-48
2022/02/18 12:05:10;;;;;;;0.97;0.77;;;13.80;79.80;;;;;;5024213;28;20451;-46
2022/02/18 12:07:41;;;;;;;0.87;0.87;;;13.80;79.00;;;;;;5025756;28;20956;-47
2022/02/18 12:10:23;;;;;;;1.00;0.73;;;13.90;78.30;;;;;;5001336;28;21260;-47
2022/02/18 12:12:58;;;;;;;1.13;0.60;;;13.90;78.20;;;;;;5024369;28;20502;-47
2022/02/18 12:15:38;;;;;;;0.97;0.60;;;13.90;79.10;;;;;;5027574;28;20451;-47
2022/02/18 12:18:08;;;;;;;0.70;0.63;;;13.90;80.20;;;;;;5027047;28;20523;-47
2022/02/18 12:20:40;;;;;;;0.67;0.57;;;13.90;80.30;;;;;;5006643;28;20494;-47
2022/02/18 12:23:22;;;;;;;0.60;0.40;;;13.80;80.40;;;;;;5026479;28;21022;-46
2022/02/18 12:25:49;;;;;;;0.70;0.70;;;13.80;80.80;;;;;;5019631;28;20562;-47
2022/02/18 12:28:20;;;;;;;1.00;0.90;;;13.80;79.10;;;;;;5029667;28;20479;-47
2022/02/18 12:30:58;;;;;;;1.90;1.20;;;13.80;78.80;;;;;;5034978;28;20522;-47
2022/02/18 12:33:26;;;;;;;0.70;0.70;;;13.80;77.60;;;;;;5010289;28;20465;-47
2022/02/18 12:35:53;;;;;;;0.40;0.40;;;13.80;77.30;;;;;;5024706;28;20454;-46
2022/02/18 12:38:20;;;;;;;0.83;0.63;;;13.80;77.20;;;;;;5028894;28;20462;-47
2022/02/18 12:40:49;;;;;;;0.60;0.50;;;13.90;77.00;;;;;;5013222;28;20466;-47
2022/02/18 12:43:17;;;;;;;0.53;0.40;;;14.00;76.50;;;;;;5028444;28;20495;-47
2022/02/18 12:45:52;;;;;;;0.73;0.67;;;14.10;75.50;;;;;;5027361;28;20459;-47
2022/02/18 12:48:40;;;;;;;0.60;0.60;;;14.20;75.30;;;;;;5025453;28;20993;-47
2022/02/18 12:51:17;;;;;;;0.93;0.60;;;14.20;74.50;;;;;;5023514;28;20502;-46
2022/02/18 12:53:48;;;;;;;1.20;0.63;;;14.30;74.80;;;;;;5027784;28;20462;-47
2022/02/18 12:56:19;;;;;;;0.60;0.40;;;14.40;75.60;;;;;;5010888;28;20555;-47